Itapemirim, Brazil
Current Conditions -  °F | °C
As of 10:00 AM on Monday 22 Dec 2014 (Local Time) from SBCP Reporting Station
Clear Clear  
Wind Chill: 90°   Ceiling: Unl
Heat Index: 98°   Visibility: 6mi
Dew Point: 73°   Wind: 12mph
Humidity: 59%   Direction: 40°NE
Pressure: 29.88"   Gusts: NA
Location:  21.01°S, 40.83°W
Report Text: SBCP 221200Z 04010KT CAVOK 32/23 Q1012
Loading
Personal Weather Stations






























Interactive Weather Map New forecast layout! Learn more

10-Day Weather Forecast

Advertisements
Track Severe Weather on mobile